sensor_id;sensor_type;location;lat;lon;timestamp;temperature;humidity
31074;DHT22;17730;53.552;9.940;2022-09-09T00:04:29;14.40;99.90
31074;DHT22;17730;53.552;9.940;2022-09-09T00:09:47;14.40;99.90
31074;DHT22;17730;53.552;9.940;2022-09-09T00:12:25;14.40;99.90
31074;DHT22;17730;53.552;9.940;2022-09-09T00:14:56;14.50;99.90
31074;DHT22;17730;53.552;9.940;2022-09-09T00:20:11;14.50;99.90
31074;DHT22;17730;53.552;9.940;2022-09-09T00:22:38;14.50;99.90
31074;DHT22;17730;53.552;9.940;2022-09-09T00:25:16;14.60;99.90
31074;DHT22;17730;53.552;9.940;2022-09-09T00:27:48;14.60;99.90
31074;DHT22;17730;53.552;9.940;2022-09-09T00:30:21;14.70;99.90
31074;DHT22;17730;53.552;9.940;2022-09-09T00:33:15;14.70;99.90
31074;DHT22;17730;53.552;9.940;2022-09-09T00:36:00;14.80;99.90
31074;DHT22;17730;53.552;9.940;2022-09-09T00:38:42;14.90;99.90
31074;DHT22;17730;53.552;9.940;2022-09-09T00:41:19;14.80;99.90
31074;DHT22;17730;53.552;9.940;2022-09-09T00:44:06;14.90;99.90
31074;DHT22;17730;53.552;9.940;2022-09-09T00:46:54;14.90;99.90
31074;DHT22;17730;53.552;9.940;2022-09-09T00:55:48;15.00;99.90
31074;DHT22;17730;53.552;9.940;2022-09-09T00:58:17;14.90;99.90
31074;DHT22;17730;53.552;9.940;2022-09-09T01:00:57;15.00;99.90
31074;DHT22;17730;53.552;9.940;2022-09-09T01:03:55;15.10;99.90
31074;DHT22;17730;53.552;9.940;2022-09-09T01:11:58;15.00;99.90
31074;DHT22;17730;53.552;9.940;2022-09-09T01:27:40;14.70;99.90
31074;DHT22;17730;53.552;9.940;2022-09-09T01:30:11;14.70;99.90
31074;DHT22;17730;53.552;9.940;2022-09-09T01:32:48;14.60;99.90
31074;DHT22;17730;53.552;9.940;2022-09-09T01:35:28;14.60;99.90
31074;DHT22;17730;53.552;9.940;2022-09-09T01:37:55;14.60;99.90
31074;DHT22;17730;53.552;9.940;2022-09-09T01:40:21;14.60;99.90
31074;DHT22;17730;53.552;9.940;2022-09-09T01:42:47;14.60;99.90
31074;DHT22;17730;53.552;9.940;2022-09-09T01:45:14;14.50;99.90
31074;DHT22;17730;53.552;9.940;2022-09-09T01:47:40;14.60;99.90
31074;DHT22;17730;53.552;9.940;2022-09-09T01:50:07;14.60;99.90
31074;DHT22;17730;53.552;9.940;2022-09-09T01:52:37;14.60;99.90
31074;DHT22;17730;53.552;9.940;2022-09-09T01:55:03;14.50;99.90
31074;DHT22;17730;53.552;9.940;2022-09-09T02:00:11;14.50;99.90
31074;DHT22;17730;53.552;9.940;2022-09-09T02:05:30;14.50;99.90
31074;DHT22;17730;53.552;9.940;2022-09-09T02:08:07;14.40;99.90
31074;DHT22;17730;53.552;9.940;2022-09-09T02:11:07;14.40;99.90
31074;DHT22;17730;53.552;9.940;2022-09-09T02:13:36;14.40;99.90
31074;DHT22;17730;53.552;9.940;2022-09-09T02:16:07;14.30;99.90
31074;DHT22;17730;53.552;9.940;2022-09-09T02:19:16;14.40;99.90
31074;DHT22;17730;53.552;9.940;2022-09-09T02:21:41;14.30;99.90
31074;DHT22;17730;53.552;9.940;2022-09-09T02:24:08;14.40;99.90
31074;DHT22;17730;53.552;9.940;2022-09-09T02:26:39;14.30;99.90
31074;DHT22;17730;53.552;9.940;2022-09-09T02:29:09;14.30;99.90
31074;DHT22;17730;53.552;9.940;2022-09-09T02:31:38;14.30;99.90
31074;DHT22;17730;53.552;9.940;2022-09-09T02:34:05;14.20;99.90
31074;DHT22;17730;53.552;9.940;2022-09-09T02:36:36;14.10;99.90
31074;DHT22;17730;53.552;9.940;2022-09-09T02:39:06;14.10;99.90
31074;DHT22;17730;53.552;9.940;2022-09-09T02:41:34;14.20;99.90
31074;DHT22;17730;53.552;9.940;2022-09-09T02:44:01;14.10;99.90
31074;DHT22;17730;53.552;9.940;2022-09-09T02:49:10;14.00;99.90
31074;DHT22;17730;53.552;9.940;2022-09-09T02:56:38;14.00;99.90
31074;DHT22;17730;53.552;9.940;2022-09-09T02:59:05;14.00;99.90
31074;DHT22;17730;53.552;9.940;2022-09-09T03:01:31;13.90;99.90
31074;DHT22;17730;53.552;9.940;2022-09-09T03:03:57;14.00;99.90
31074;DHT22;17730;53.552;9.940;2022-09-09T03:06:22;13.90;99.90
31074;DHT22;17730;53.552;9.940;2022-09-09T03:08:48;14.00;99.90
31074;DHT22;17730;53.552;9.940;2022-09-09T03:11:16;14.00;99.90
31074;DHT22;17730;53.552;9.940;2022-09-09T03:13:41;13.90;99.90
31074;DHT22;17730;53.552;9.940;2022-09-09T03:16:07;13.90;99.90
31074;DHT22;17730;53.552;9.940;2022-09-09T03:18:32;13.90;99.90
31074;DHT22;17730;53.552;9.940;2022-09-09T03:21:00;13.90;99.90
31074;DHT22;17730;53.552;9.940;2022-09-09T03:23:26;13.80;99.90
31074;DHT22;17730;53.552;9.940;2022-09-09T03:25:51;13.90;99.90
31074;DHT22;17730;53.552;9.940;2022-09-09T03:28:17;13.90;99.90
31074;DHT22;17730;53.552;9.940;2022-09-09T03:30:43;13.80;99.90
31074;DHT22;17730;53.552;9.940;2022-09-09T03:33:09;13.90;99.90
31074;DHT22;17730;53.552;9.940;2022-09-09T03:35:35;13.80;99.90
31074;DHT22;17730;53.552;9.940;2022-09-09T03:38:01;13.70;99.90
31074;DHT22;17730;53.552;9.940;2022-09-09T03:40:27;13.70;99.90
31074;DHT22;17730;53.552;9.940;2022-09-09T03:42:52;13.70;99.90
31074;DHT22;17730;53.552;9.940;2022-09-09T03:45:18;13.70;99.90
31074;DHT22;17730;53.552;9.940;2022-09-09T03:47:43;13.70;99.90
31074;DHT22;17730;53.552;9.940;2022-09-09T03:50:10;13.70;99.90
31074;DHT22;17730;53.552;9.940;2022-09-09T03:52:40;13.70;99.90
31074;DHT22;17730;53.552;9.940;2022-09-09T03:55:06;13.60;99.90
31074;DHT22;17730;53.552;9.940;2022-09-09T03:57:33;13.60;99.90
31074;DHT22;17730;53.552;9.940;2022-09-09T04:00:02;13.60;99.90
31074;DHT22;17730;53.552;9.940;2022-09-09T04:02:28;13.60;99.90
31074;DHT22;17730;53.552;9.940;2022-09-09T04:04:53;13.60;99.90
31074;DHT22;17730;53.552;9.940;2022-09-09T04:07:19;13.60;99.90
31074;DHT22;17730;53.552;9.940;2022-09-09T04:09:44;13.60;99.90
31074;DHT22;17730;53.552;9.940;2022-09-09T04:12:10;13.60;99.90
31074;DHT22;17730;53.552;9.940;2022-09-09T04:14:38;13.50;99.90
31074;DHT22;17730;53.552;9.940;2022-09-09T04:17:04;13.50;99.90
31074;DHT22;17730;53.552;9.940;2022-09-09T04:19:31;13.50;99.90
31074;DHT22;17730;53.552;9.940;2022-09-09T04:21:57;13.50;99.90
31074;DHT22;17730;53.552;9.940;2022-09-09T04:24:23;13.40;99.90
31074;DHT22;17730;53.552;9.940;2022-09-09T04:26:48;13.50;99.90
31074;DHT22;17730;53.552;9.940;2022-09-09T04:29:14;13.50;99.90
31074;DHT22;17730;53.552;9.940;2022-09-09T04:31:40;13.40;99.90
31074;DHT22;17730;53.552;9.940;2022-09-09T04:34:08;13.50;99.90
31074;DHT22;17730;53.552;9.940;2022-09-09T04:36:34;13.50;99.90
31074;DHT22;17730;53.552;9.940;2022-09-09T04:39:00;13.50;99.90
31074;DHT22;17730;53.552;9.940;2022-09-09T04:41:27;13.50;99.90
31074;DHT22;17730;53.552;9.940;2022-09-09T04:43:52;13.60;99.90
31074;DHT22;17730;53.552;9.940;2022-09-09T04:46:19;13.60;99.90
31074;DHT22;17730;53.552;9.940;2022-09-09T04:48:45;13.70;99.90
31074;DHT22;17730;53.552;9.940;2022-09-09T04:51:13;13.70;99.90
31074;DHT22;17730;53.552;9.940;2022-09-09T04:53:39;13.80;99.90
31074;DHT22;17730;53.552;9.940;2022-09-09T04:56:11;13.80;99.90
31074;DHT22;17730;53.552;9.940;2022-09-09T04:58:38;13.80;99.90
31074;DHT22;17730;53.552;9.940;2022-09-09T05:01:09;13.90;99.90
31074;DHT22;17730;53.552;9.940;2022-09-09T05:03:36;13.90;99.90
31074;DHT22;17730;53.552;9.940;2022-09-09T05:06:11;13.90;99.90
31074;DHT22;17730;53.552;9.940;2022-09-09T05:08:38;13.90;99.90
31074;DHT22;17730;53.552;9.940;2022-09-09T05:11:19;13.80;99.90
31074;DHT22;17730;53.552;9.940;2022-09-09T05:13:45;13.90;99.90
31074;DHT22;17730;53.552;9.940;2022-09-09T05:16:12;13.80;99.90
31074;DHT22;17730;53.552;9.940;2022-09-09T05:18:39;13.80;99.90
31074;DHT22;17730;53.552;9.940;2022-09-09T05:21:05;13.80;99.90
31074;DHT22;17730;53.552;9.940;2022-09-09T05:23:31;13.80;99.90
31074;DHT22;17730;53.552;9.940;2022-09-09T05:25:59;13.80;99.90
31074;DHT22;17730;53.552;9.940;2022-09-09T05:28:26;13.90;99.90
31074;DHT22;17730;53.552;9.940;2022-09-09T05:31:03;13.90;99.90
31074;DHT22;17730;53.552;9.940;2022-09-09T05:33:30;14.00;99.90
31074;DHT22;17730;53.552;9.940;2022-09-09T05:36:09;14.00;99.90
31074;DHT22;17730;53.552;9.940;2022-09-09T05:38:36;14.10;99.90
31074;DHT22;17730;53.552;9.940;2022-09-09T05:41:03;14.20;99.90
31074;DHT22;17730;53.552;9.940;2022-09-09T05:43:29;14.30;99.90
31074;DHT22;17730;53.552;9.940;2022-09-09T05:46:06;14.30;99.90
31074;DHT22;17730;53.552;9.940;2022-09-09T05:48:34;14.30;99.90
31074;DHT22;17730;53.552;9.940;2022-09-09T05:51:01;14.40;99.90
31074;DHT22;17730;53.552;9.940;2022-09-09T05:53:28;14.50;99.90
31074;DHT22;17730;53.552;9.940;2022-09-09T05:56:05;14.60;99.90
31074;DHT22;17730;53.552;9.940;2022-09-09T05:58:34;14.60;99.90
31074;DHT22;17730;53.552;9.940;2022-09-09T06:01:08;14.80;99.90
31074;DHT22;17730;53.552;9.940;2022-09-09T06:03:36;14.90;99.90
31074;DHT22;17730;53.552;9.940;2022-09-09T06:06:04;15.10;99.90
31074;DHT22;17730;53.552;9.940;2022-09-09T06:08:35;15.00;99.90
31074;DHT22;17730;53.552;9.940;2022-09-09T06:11:04;15.20;99.90
31074;DHT22;17730;53.552;9.940;2022-09-09T06:13:31;15.10;99.90
31074;DHT22;17730;53.552;9.940;2022-09-09T06:15:56;15.10;99.90
31074;DHT22;17730;53.552;9.940;2022-09-09T06:18:23;15.10;99.90
31074;DHT22;17730;53.552;9.940;2022-09-09T06:20:57;15.20;99.90
31074;DHT22;17730;53.552;9.940;2022-09-09T06:23:24;15.30;99.90
31074;DHT22;17730;53.552;9.940;2022-09-09T06:25:50;15.10;99.90
31074;DHT22;17730;53.552;9.940;2022-09-09T06:28:17;15.10;99.90
31074;DHT22;17730;53.552;9.940;2022-09-09T06:30:42;15.20;99.90
31074;DHT22;17730;53.552;9.940;2022-09-09T06:33:08;15.30;99.90
31074;DHT22;17730;53.552;9.940;2022-09-09T06:35:34;15.30;99.90
31074;DHT22;17730;53.552;9.940;2022-09-09T06:38:00;15.30;99.90
31074;DHT22;17730;53.552;9.940;2022-09-09T06:40:25;15.40;99.90
31074;DHT22;17730;53.552;9.940;2022-09-09T06:42:51;15.50;99.90
31074;DHT22;17730;53.552;9.940;2022-09-09T06:45:17;15.80;99.90
31074;DHT22;17730;53.552;9.940;2022-09-09T06:47:43;15.90;99.90
31074;DHT22;17730;53.552;9.940;2022-09-09T06:50:09;16.00;99.90
31074;DHT22;17730;53.552;9.940;2022-09-09T06:52:35;16.20;99.90
31074;DHT22;17730;53.552;9.940;2022-09-09T06:55:01;16.30;99.90
31074;DHT22;17730;53.552;9.940;2022-09-09T06:57:26;16.60;99.90
31074;DHT22;17730;53.552;9.940;2022-09-09T06:59:52;16.50;99.90
31074;DHT22;17730;53.552;9.940;2022-09-09T07:02:17;16.70;99.90
31074;DHT22;17730;53.552;9.940;2022-09-09T07:04:43;17.20;99.90
31074;DHT22;17730;53.552;9.940;2022-09-09T07:07:09;17.00;99.90
31074;DHT22;17730;53.552;9.940;2022-09-09T07:09:37;17.40;99.90
31074;DHT22;17730;53.552;9.940;2022-09-09T07:12:03;17.90;99.90
31074;DHT22;17730;53.552;9.940;2022-09-09T07:14:32;17.80;99.90
31074;DHT22;17730;53.552;9.940;2022-09-09T07:16:59;18.10;99.90
31074;DHT22;17730;53.552;9.940;2022-09-09T07:19:25;17.90;99.90
31074;DHT22;17730;53.552;9.940;2022-09-09T07:21:51;18.40;99.90
31074;DHT22;17730;53.552;9.940;2022-09-09T07:24:16;18.60;99.90
31074;DHT22;17730;53.552;9.940;2022-09-09T07:26:42;18.20;99.90
31074;DHT22;17730;53.552;9.940;2022-09-09T07:29:09;18.70;99.90
31074;DHT22;17730;53.552;9.940;2022-09-09T07:31:37;18.50;99.90
31074;DHT22;17730;53.552;9.940;2022-09-09T07:34:03;19.00;99.90
31074;DHT22;17730;53.552;9.940;2022-09-09T07:36:40;19.00;99.90
31074;DHT22;17730;53.552;9.940;2022-09-09T07:39:09;19.70;99.90
31074;DHT22;17730;53.552;9.940;2022-09-09T07:41:46;19.90;99.90
31074;DHT22;17730;53.552;9.940;2022-09-09T07:44:18;19.70;99.90
31074;DHT22;17730;53.552;9.940;2022-09-09T07:46:44;20.10;99.90
31074;DHT22;17730;53.552;9.940;2022-09-09T07:49:10;19.70;99.90
31074;DHT22;17730;53.552;9.940;2022-09-09T07:51:39;19.50;99.90
31074;DHT22;17730;53.552;9.940;2022-09-09T07:54:08;19.50;99.90
31074;DHT22;17730;53.552;9.940;2022-09-09T07:56:35;19.70;99.90
31074;DHT22;17730;53.552;9.940;2022-09-09T07:59:02;19.40;99.90
31074;DHT22;17730;53.552;9.940;2022-09-09T08:01:40;19.50;99.90
31074;DHT22;17730;53.552;9.940;2022-09-09T08:04:09;19.40;99.90
31074;DHT22;17730;53.552;9.940;2022-09-09T08:06:38;19.50;99.90
31074;DHT22;17730;53.552;9.940;2022-09-09T08:09:04;19.70;99.90
31074;DHT22;17730;53.552;9.940;2022-09-09T08:11:30;20.10;99.90
31074;DHT22;17730;53.552;9.940;2022-09-09T08:13:56;20.20;99.90
31074;DHT22;17730;53.552;9.940;2022-09-09T08:16:24;20.10;99.90
31074;DHT22;17730;53.552;9.940;2022-09-09T08:18:51;20.20;99.90
31074;DHT22;17730;53.552;9.940;2022-09-09T08:21:19;20.30;99.90
31074;DHT22;17730;53.552;9.940;2022-09-09T08:23:46;20.80;99.90
31074;DHT22;17730;53.552;9.940;2022-09-09T08:26:24;20.50;99.90
31074;DHT22;17730;53.552;9.940;2022-09-09T08:28:52;20.70;99.90
31074;DHT22;17730;53.552;9.940;2022-09-09T08:31:21;21.10;99.90
31074;DHT22;17730;53.552;9.940;2022-09-09T08:33:46;21.30;99.90
31074;DHT22;17730;53.552;9.940;2022-09-09T08:36:15;21.20;99.90
31074;DHT22;17730;53.552;9.940;2022-09-09T08:38:42;21.40;99.90
31074;DHT22;17730;53.552;9.940;2022-09-09T08:44:10;21.10;99.90
31074;DHT22;17730;53.552;9.940;2022-09-09T08:46:46;21.10;99.90
31074;DHT22;17730;53.552;9.940;2022-09-09T08:52:31;20.70;99.90
31074;DHT22;17730;53.552;9.940;2022-09-09T08:58:14;20.60;99.90
31074;DHT22;17730;53.552;9.940;2022-09-09T09:01:03;20.70;99.90
31074;DHT22;17730;53.552;9.940;2022-09-09T09:11:51;20.80;99.90
31074;DHT22;17730;53.552;9.940;2022-09-09T09:14:24;21.30;99.90
31074;DHT22;17730;53.552;9.940;2022-09-09T09:16:57;21.60;99.90
31074;DHT22;17730;53.552;9.940;2022-09-09T09:19:24;21.90;99.90
31074;DHT22;17730;53.552;9.940;2022-09-09T09:27:15;22.40;99.90
31074;DHT22;17730;53.552;9.940;2022-09-09T09:29:42;22.60;99.90
31074;DHT22;17730;53.552;9.940;2022-09-09T09:32:13;22.90;99.90
31074;DHT22;17730;53.552;9.940;2022-09-09T09:34:40;22.80;99.90
31074;DHT22;17730;53.552;9.940;2022-09-09T09:37:16;22.60;99.90
31074;DHT22;17730;53.552;9.940;2022-09-09T09:39:45;22.60;99.90
31074;DHT22;17730;53.552;9.940;2022-09-09T09:42:13;22.40;99.90
31074;DHT22;17730;53.552;9.940;2022-09-09T09:44:40;22.30;99.90
31074;DHT22;17730;53.552;9.940;2022-09-09T09:47:18;22.20;99.90
31074;DHT22;17730;53.552;9.940;2022-09-09T09:49:58;22.30;99.90
31074;DHT22;17730;53.552;9.940;2022-09-09T09:52:26;22.30;99.90
31074;DHT22;17730;53.552;9.940;2022-09-09T09:54:54;22.30;99.90
31074;DHT22;17730;53.552;9.940;2022-09-09T09:57:29;22.40;99.90
31074;DHT22;17730;53.552;9.940;2022-09-09T10:00:08;22.60;99.90
31074;DHT22;17730;53.552;9.940;2022-09-09T10:02:40;22.70;99.90
31074;DHT22;17730;53.552;9.940;2022-09-09T10:05:25;22.80;99.90
31074;DHT22;17730;53.552;9.940;2022-09-09T10:08:12;22.90;99.90
31074;DHT22;17730;53.552;9.940;2022-09-09T10:13:49;22.90;99.90
31074;DHT22;17730;53.552;9.940;2022-09-09T10:16:29;22.70;99.90
31074;DHT22;17730;53.552;9.940;2022-09-09T10:22:02;22.50;99.90
31074;DHT22;17730;53.552;9.940;2022-09-09T10:30:13;22.60;99.90
31074;DHT22;17730;53.552;9.940;2022-09-09T10:35:25;22.70;99.90
31074;DHT22;17730;53.552;9.940;2022-09-09T10:52:12;22.60;99.90
31074;DHT22;17730;53.552;9.940;2022-09-09T10:55:02;22.50;99.90
31074;DHT22;17730;53.552;9.940;2022-09-09T10:57:45;22.60;99.90
31074;DHT22;17730;53.552;9.940;2022-09-09T11:00:19;22.50;99.90
31074;DHT22;17730;53.552;9.940;2022-09-09T11:02:56;22.20;99.90
31074;DHT22;17730;53.552;9.940;2022-09-09T11:05:29;22.20;99.90
31074;DHT22;17730;53.552;9.940;2022-09-09T11:08:01;22.20;99.90
31074;DHT22;17730;53.552;9.940;2022-09-09T11:10:38;22.20;99.90
31074;DHT22;17730;53.552;9.940;2022-09-09T11:13:17;22.20;99.90
31074;DHT22;17730;53.552;9.940;2022-09-09T11:15:57;22.30;99.90
31074;DHT22;17730;53.552;9.940;2022-09-09T11:18:26;22.40;99.90
31074;DHT22;17730;53.552;9.940;2022-09-09T11:20:59;22.40;99.90
31074;DHT22;17730;53.552;9.940;2022-09-09T11:26:03;23.10;99.90
31074;DHT22;17730;53.552;9.940;2022-09-09T11:31:42;23.90;99.90
31074;DHT22;17730;53.552;9.940;2022-09-09T11:34:34;23.90;99.90
31074;DHT22;17730;53.552;9.940;2022-09-09T11:37:12;23.60;99.90
31074;DHT22;17730;53.552;9.940;2022-09-09T11:42:24;23.90;99.90
31074;DHT22;17730;53.552;9.940;2022-09-09T11:44:50;23.90;99.90
31074;DHT22;17730;53.552;9.940;2022-09-09T11:47:30;23.70;99.90
31074;DHT22;17730;53.552;9.940;2022-09-09T11:55:29;23.20;99.90
31074;DHT22;17730;53.552;9.940;2022-09-09T11:58:04;23.20;99.90
31074;DHT22;17730;53.552;9.940;2022-09-09T12:03:03;22.60;99.90
31074;DHT22;17730;53.552;9.940;2022-09-09T12:05:40;22.40;99.90
31074;DHT22;17730;53.552;9.940;2022-09-09T12:08:10;22.40;99.90
31074;DHT22;17730;53.552;9.940;2022-09-09T12:10:39;22.20;99.90
31074;DHT22;17730;53.552;9.940;2022-09-09T12:13:25;22.00;99.90
31074;DHT22;17730;53.552;9.940;2022-09-09T12:15:53;22.00;99.90
31074;DHT22;17730;53.552;9.940;2022-09-09T12:18:43;21.90;99.90
31074;DHT22;17730;53.552;9.940;2022-09-09T12:24:09;21.90;99.90
31074;DHT22;17730;53.552;9.940;2022-09-09T12:34:32;23.30;99.90
31074;DHT22;17730;53.552;9.940;2022-09-09T12:37:14;23.10;99.90
31074;DHT22;17730;53.552;9.940;2022-09-09T12:39:57;23.00;99.90
31074;DHT22;17730;53.552;9.940;2022-09-09T12:42:25;22.70;99.90
31074;DHT22;17730;53.552;9.940;2022-09-09T12:44:58;22.60;99.90
31074;DHT22;17730;53.552;9.940;2022-09-09T12:47:30;22.60;99.90
31074;DHT22;17730;53.552;9.940;2022-09-09T12:49:58;22.40;99.90
31074;DHT22;17730;53.552;9.940;2022-09-09T12:52:30;22.00;99.90
31074;DHT22;17730;53.552;9.940;2022-09-09T12:55:00;21.90;99.90
31074;DHT22;17730;53.552;9.940;2022-09-09T12:57:35;21.80;99.90
31074;DHT22;17730;53.552;9.940;2022-09-09T13:03:14;21.50;99.90
31074;DHT22;17730;53.552;9.940;2022-09-09T13:05:42;21.30;99.90
31074;DHT22;17730;53.552;9.940;2022-09-09T13:08:12;21.10;99.90
31074;DHT22;17730;53.552;9.940;2022-09-09T13:13:22;20.70;99.90
31074;DHT22;17730;53.552;9.940;2022-09-09T13:15:54;20.30;99.90
31074;DHT22;17730;53.552;9.940;2022-09-09T13:18:27;20.20;99.90
31074;DHT22;17730;53.552;9.940;2022-09-09T13:20:54;20.50;99.90
31074;DHT22;17730;53.552;9.940;2022-09-09T13:23:21;19.90;99.90
31074;DHT22;17730;53.552;9.940;2022-09-09T13:25:59;19.80;99.90
31074;DHT22;17730;53.552;9.940;2022-09-09T13:28:27;19.10;99.90
31074;DHT22;17730;53.552;9.940;2022-09-09T13:31:23;18.70;99.90
31074;DHT22;17730;53.552;9.940;2022-09-09T13:33:49;18.30;99.90
31074;DHT22;17730;53.552;9.940;2022-09-09T13:36:14;18.10;99.90
31074;DHT22;17730;53.552;9.940;2022-09-09T13:38:53;18.00;99.90
31074;DHT22;17730;53.552;9.940;2022-09-09T13:41:36;18.10;99.90
31074;DHT22;17730;53.552;9.940;2022-09-09T13:44:20;17.70;99.90
31074;DHT22;17730;53.552;9.940;2022-09-09T13:46:48;17.70;99.90
31074;DHT22;17730;53.552;9.940;2022-09-09T13:49:28;18.00;99.90
31074;DHT22;17730;53.552;9.940;2022-09-09T13:52:09;17.80;99.90
31074;DHT22;17730;53.552;9.940;2022-09-09T13:54:35;17.70;99.90
31074;DHT22;17730;53.552;9.940;2022-09-09T13:57:01;17.80;99.90
31074;DHT22;17730;53.552;9.940;2022-09-09T13:59:27;17.80;99.90
31074;DHT22;17730;53.552;9.940;2022-09-09T14:01:52;17.90;99.90
31074;DHT22;17730;53.552;9.940;2022-09-09T14:04:19;18.10;99.90
31074;DHT22;17730;53.552;9.940;2022-09-09T14:06:47;18.20;99.90
31074;DHT22;17730;53.552;9.940;2022-09-09T14:09:15;18.00;99.90
31074;DHT22;17730;53.552;9.940;2022-09-09T14:11:41;18.10;99.90
31074;DHT22;17730;53.552;9.940;2022-09-09T14:14:08;18.10;99.90
31074;DHT22;17730;53.552;9.940;2022-09-09T14:16:33;18.00;99.90
31074;DHT22;17730;53.552;9.940;2022-09-09T14:18:59;18.10;99.90
31074;DHT22;17730;53.552;9.940;2022-09-09T14:21:25;18.30;99.90
31074;DHT22;17730;53.552;9.940;2022-09-09T14:23:52;18.10;99.90
31074;DHT22;17730;53.552;9.940;2022-09-09T14:26:23;18.10;99.90
31074;DHT22;17730;53.552;9.940;2022-09-09T14:28:49;18.10;99.90
31074;DHT22;17730;53.552;9.940;2022-09-09T14:31:15;18.20;99.90
31074;DHT22;17730;53.552;9.940;2022-09-09T14:33:43;18.10;99.90
31074;DHT22;17730;53.552;9.940;2022-09-09T14:36:10;17.90;99.90
31074;DHT22;17730;53.552;9.940;2022-09-09T14:38:37;18.10;99.90
31074;DHT22;17730;53.552;9.940;2022-09-09T14:41:09;17.80;99.90
31074;DHT22;17730;53.552;9.940;2022-09-09T14:43:37;17.70;99.90
31074;DHT22;17730;53.552;9.940;2022-09-09T14:46:07;17.80;99.90
31074;DHT22;17730;53.552;9.940;2022-09-09T14:48:32;17.90;99.90
31074;DHT22;17730;53.552;9.940;2022-09-09T14:51:16;17.70;99.90
31074;DHT22;17730;53.552;9.940;2022-09-09T14:53:43;17.90;99.90
31074;DHT22;17730;53.552;9.940;2022-09-09T14:56:17;17.80;99.90
31074;DHT22;17730;53.552;9.940;2022-09-09T14:58:44;17.70;99.90
31074;DHT22;17730;53.552;9.940;2022-09-09T15:01:12;18.00;99.90
31074;DHT22;17730;53.552;9.940;2022-09-09T15:03:39;17.70;99.90
31074;DHT22;17730;53.552;9.940;2022-09-09T15:06:11;17.70;99.90
31074;DHT22;17730;53.552;9.940;2022-09-09T15:08:38;17.80;99.90
31074;DHT22;17730;53.552;9.940;2022-09-09T15:11:05;17.80;99.90
31074;DHT22;17730;53.552;9.940;2022-09-09T15:13:33;17.70;99.90
31074;DHT22;17730;53.552;9.940;2022-09-09T15:16:07;17.90;99.90
31074;DHT22;17730;53.552;9.940;2022-09-09T15:18:33;17.80;99.90
31074;DHT22;17730;53.552;9.940;2022-09-09T15:21:00;17.80;99.90
31074;DHT22;17730;53.552;9.940;2022-09-09T15:23:27;18.10;99.90
31074;DHT22;17730;53.552;9.940;2022-09-09T15:25:54;18.10;99.90
31074;DHT22;17730;53.552;9.940;2022-09-09T15:28:21;18.20;99.90
31074;DHT22;17730;53.552;9.940;2022-09-09T15:30:50;18.00;99.90
31074;DHT22;17730;53.552;9.940;2022-09-09T15:33:18;18.00;99.90
31074;DHT22;17730;53.552;9.940;2022-09-09T15:35:43;18.20;99.90
31074;DHT22;17730;53.552;9.940;2022-09-09T15:38:09;18.20;99.90
31074;DHT22;17730;53.552;9.940;2022-09-09T15:40:35;18.30;99.90
31074;DHT22;17730;53.552;9.940;2022-09-09T15:43:01;18.30;99.90
31074;DHT22;17730;53.552;9.940;2022-09-09T15:45:28;18.80;99.90
31074;DHT22;17730;53.552;9.940;2022-09-09T15:47:57;18.60;99.90
31074;DHT22;17730;53.552;9.940;2022-09-09T15:50:23;18.80;99.90
31074;DHT22;17730;53.552;9.940;2022-09-09T15:52:48;18.80;99.90
31074;DHT22;17730;53.552;9.940;2022-09-09T15:55:14;18.60;99.90
31074;DHT22;17730;53.552;9.940;2022-09-09T15:57:40;18.70;99.90
31074;DHT22;17730;53.552;9.940;2022-09-09T16:00:06;18.60;99.90
31074;DHT22;17730;53.552;9.940;2022-09-09T16:02:32;18.70;99.90
31074;DHT22;17730;53.552;9.940;2022-09-09T16:04:58;18.80;99.90
31074;DHT22;17730;53.552;9.940;2022-09-09T16:07:23;19.20;99.90
31074;DHT22;17730;53.552;9.940;2022-09-09T16:09:49;19.00;99.90
31074;DHT22;17730;53.552;9.940;2022-09-09T16:12:18;19.00;99.90
31074;DHT22;17730;53.552;9.940;2022-09-09T16:14:44;19.20;99.90
31074;DHT22;17730;53.552;9.940;2022-09-09T16:17:10;19.60;99.90
31074;DHT22;17730;53.552;9.940;2022-09-09T16:19:36;19.30;99.90
31074;DHT22;17730;53.552;9.940;2022-09-09T16:22:02;19.40;99.90
31074;DHT22;17730;53.552;9.940;2022-09-09T16:24:29;19.70;99.90
31074;DHT22;17730;53.552;9.940;2022-09-09T16:26:55;19.40;99.90
31074;DHT22;17730;53.552;9.940;2022-09-09T16:29:21;19.30;99.90
31074;DHT22;17730;53.552;9.940;2022-09-09T16:31:47;19.60;99.90
31074;DHT22;17730;53.552;9.940;2022-09-09T16:34:14;19.50;99.90
31074;DHT22;17730;53.552;9.940;2022-09-09T16:36:41;19.30;99.90
31074;DHT22;17730;53.552;9.940;2022-09-09T16:39:09;19.70;99.90
31074;DHT22;17730;53.552;9.940;2022-09-09T16:41:36;19.50;99.90
31074;DHT22;17730;53.552;9.940;2022-09-09T16:44:05;19.40;99.90
31074;DHT22;17730;53.552;9.940;2022-09-09T16:46:33;19.30;99.90
31074;DHT22;17730;53.552;9.940;2022-09-09T16:49:01;19.30;99.90
31074;DHT22;17730;53.552;9.940;2022-09-09T16:51:32;19.20;99.90
31074;DHT22;17730;53.552;9.940;2022-09-09T16:54:00;19.00;99.90
31074;DHT22;17730;53.552;9.940;2022-09-09T16:56:29;19.00;99.90
31074;DHT22;17730;53.552;9.940;2022-09-09T16:58:57;19.20;99.90
31074;DHT22;17730;53.552;9.940;2022-09-09T17:01:24;18.80;99.90
31074;DHT22;17730;53.552;9.940;2022-09-09T17:03:57;19.00;99.90
31074;DHT22;17730;53.552;9.940;2022-09-09T17:06:24;18.90;99.90
31074;DHT22;17730;53.552;9.940;2022-09-09T17:09:00;18.50;99.90
31074;DHT22;17730;53.552;9.940;2022-09-09T17:11:27;18.30;99.90
31074;DHT22;17730;53.552;9.940;2022-09-09T17:13:54;18.30;99.90
31074;DHT22;17730;53.552;9.940;2022-09-09T17:16:22;18.40;99.90
31074;DHT22;17730;53.552;9.940;2022-09-09T17:18:48;18.90;99.90
31074;DHT22;17730;53.552;9.940;2022-09-09T17:21:17;18.50;99.90
31074;DHT22;17730;53.552;9.940;2022-09-09T17:23:43;18.40;99.90
31074;DHT22;17730;53.552;9.940;2022-09-09T17:26:11;18.20;99.90
31074;DHT22;17730;53.552;9.940;2022-09-09T17:28:38;18.20;99.90
31074;DHT22;17730;53.552;9.940;2022-09-09T17:31:05;18.20;99.90
31074;DHT22;17730;53.552;9.940;2022-09-09T17:33:34;18.10;99.90
31074;DHT22;17730;53.552;9.940;2022-09-09T17:36:02;17.60;99.90
31074;DHT22;17730;53.552;9.940;2022-09-09T17:38:28;17.40;99.90
31074;DHT22;17730;53.552;9.940;2022-09-09T17:41:05;17.40;99.90
31074;DHT22;17730;53.552;9.940;2022-09-09T17:43:32;17.40;99.90
31074;DHT22;17730;53.552;9.940;2022-09-09T17:46:14;17.10;99.90
31074;DHT22;17730;53.552;9.940;2022-09-09T17:48:41;17.00;99.90
31074;DHT22;17730;53.552;9.940;2022-09-09T17:51:12;17.10;99.90
31074;DHT22;17730;53.552;9.940;2022-09-09T17:53:43;16.80;99.90
31074;DHT22;17730;53.552;9.940;2022-09-09T17:56:12;16.70;99.90
31074;DHT22;17730;53.552;9.940;2022-09-09T17:58:38;16.60;99.90